sensor_id;sensor_type;location;lat;lon;timestamp;temperature;humidity
420;DHT22;42600;54.408;13.016;2023-07-13T00:02:15;18.90;87.50
420;DHT22;42600;54.408;13.016;2023-07-13T00:04:42;19.00;86.90
420;DHT22;42600;54.408;13.016;2023-07-13T00:07:08;19.00;87.10
420;DHT22;42600;54.408;13.016;2023-07-13T00:09:35;19.00;86.80
420;DHT22;42600;54.408;13.016;2023-07-13T00:12:01;19.00;87.20
420;DHT22;42600;54.408;13.016;2023-07-13T00:14:29;18.90;87.80
420;DHT22;42600;54.408;13.016;2023-07-13T00:16:56;18.90;88.00
420;DHT22;42600;54.408;13.016;2023-07-13T00:19:24;18.80;88.20
420;DHT22;42600;54.408;13.016;2023-07-13T00:21:51;18.90;87.50
420;DHT22;42600;54.408;13.016;2023-07-13T00:24:21;19.00;87.00
420;DHT22;42600;54.408;13.016;2023-07-13T00:26:49;19.00;87.20
420;DHT22;42600;54.408;13.016;2023-07-13T00:29:16;18.90;87.40
420;DHT22;42600;54.408;13.016;2023-07-13T00:31:44;18.90;87.20
420;DHT22;42600;54.408;13.016;2023-07-13T00:34:11;18.90;87.10
420;DHT22;42600;54.408;13.016;2023-07-13T00:36:38;18.80;88.00
420;DHT22;42600;54.408;13.016;2023-07-13T00:39:04;18.80;87.70
420;DHT22;42600;54.408;13.016;2023-07-13T00:41:31;18.80;88.00
420;DHT22;42600;54.408;13.016;2023-07-13T00:43:58;18.70;87.90
420;DHT22;42600;54.408;13.016;2023-07-13T00:46:26;18.70;87.90
420;DHT22;42600;54.408;13.016;2023-07-13T00:48:58;18.80;87.80
420;DHT22;42600;54.408;13.016;2023-07-13T00:51:31;18.80;88.10
420;DHT22;42600;54.408;13.016;2023-07-13T00:54:03;18.70;88.20
420;DHT22;42600;54.408;13.016;2023-07-13T00:56:31;18.70;87.60
420;DHT22;42600;54.408;13.016;2023-07-13T00:58:59;18.80;87.90
420;DHT22;42600;54.408;13.016;2023-07-13T01:01:26;18.70;87.90
420;DHT22;42600;54.408;13.016;2023-07-13T01:03:54;18.70;87.80
420;DHT22;42600;54.408;13.016;2023-07-13T01:06:22;18.70;87.70
420;DHT22;42600;54.408;13.016;2023-07-13T01:08:49;18.70;88.30
420;DHT22;42600;54.408;13.016;2023-07-13T01:11:19;18.60;88.40
420;DHT22;42600;54.408;13.016;2023-07-13T01:13:47;18.60;88.10
420;DHT22;42600;54.408;13.016;2023-07-13T01:16:19;18.70;87.50
420;DHT22;42600;54.408;13.016;2023-07-13T01:18:48;18.70;87.70
420;DHT22;42600;54.408;13.016;2023-07-13T01:21:16;18.70;87.90
420;DHT22;42600;54.408;13.016;2023-07-13T01:23:44;18.70;87.70
420;DHT22;42600;54.408;13.016;2023-07-13T01:26:11;18.70;87.70
420;DHT22;42600;54.408;13.016;2023-07-13T01:28:38;18.60;88.10
420;DHT22;42600;54.408;13.016;2023-07-13T01:31:04;18.60;87.90
420;DHT22;42600;54.408;13.016;2023-07-13T01:33:31;18.60;88.10
420;DHT22;42600;54.408;13.016;2023-07-13T01:36:00;18.60;88.30
420;DHT22;42600;54.408;13.016;2023-07-13T01:38:28;18.60;88.30
420;DHT22;42600;54.408;13.016;2023-07-13T01:40:55;18.60;88.20
420;DHT22;42600;54.408;13.016;2023-07-13T01:43:22;18.60;88.30
420;DHT22;42600;54.408;13.016;2023-07-13T01:45:48;18.50;88.30
420;DHT22;42600;54.408;13.016;2023-07-13T01:48:15;18.50;88.30
420;DHT22;42600;54.408;13.016;2023-07-13T01:50:41;18.60;88.30
420;DHT22;42600;54.408;13.016;2023-07-13T01:53:08;18.50;89.10
420;DHT22;42600;54.408;13.016;2023-07-13T01:55:37;18.40;88.80
420;DHT22;42600;54.408;13.016;2023-07-13T01:58:04;18.50;88.60
420;DHT22;42600;54.408;13.016;2023-07-13T02:00:31;18.50;88.50
420;DHT22;42600;54.408;13.016;2023-07-13T02:02:58;18.50;88.60
420;DHT22;42600;54.408;13.016;2023-07-13T02:05:24;18.40;88.60
420;DHT22;42600;54.408;13.016;2023-07-13T02:07:51;18.40;88.50
420;DHT22;42600;54.408;13.016;2023-07-13T02:10:19;18.40;88.70
420;DHT22;42600;54.408;13.016;2023-07-13T02:12:48;18.40;88.50
420;DHT22;42600;54.408;13.016;2023-07-13T02:15:15;18.40;88.30
420;DHT22;42600;54.408;13.016;2023-07-13T02:17:42;18.40;87.90
420;DHT22;42600;54.408;13.016;2023-07-13T02:20:09;18.40;88.00
420;DHT22;42600;54.408;13.016;2023-07-13T02:22:36;18.40;88.10
420;DHT22;42600;54.408;13.016;2023-07-13T02:25:03;18.30;88.20
420;DHT22;42600;54.408;13.016;2023-07-13T02:27:30;18.30;88.00
420;DHT22;42600;54.408;13.016;2023-07-13T02:29:58;18.30;88.30
420;DHT22;42600;54.408;13.016;2023-07-13T02:32:24;18.20;88.70
420;DHT22;42600;54.408;13.016;2023-07-13T02:34:51;18.20;88.50
420;DHT22;42600;54.408;13.016;2023-07-13T02:37:19;18.20;88.70
420;DHT22;42600;54.408;13.016;2023-07-13T02:39:46;18.20;88.70
420;DHT22;42600;54.408;13.016;2023-07-13T02:42:13;18.10;89.00
420;DHT22;42600;54.408;13.016;2023-07-13T02:44:40;18.10;89.90
420;DHT22;42600;54.408;13.016;2023-07-13T02:47:08;18.10;89.20
420;DHT22;42600;54.408;13.016;2023-07-13T02:49:34;18.10;88.40
420;DHT22;42600;54.408;13.016;2023-07-13T02:52:01;18.10;88.40
420;DHT22;42600;54.408;13.016;2023-07-13T02:54:28;18.10;88.20
420;DHT22;42600;54.408;13.016;2023-07-13T02:56:54;18.20;88.40
420;DHT22;42600;54.408;13.016;2023-07-13T02:59:21;18.10;88.00
420;DHT22;42600;54.408;13.016;2023-07-13T03:01:47;18.10;88.20
420;DHT22;42600;54.408;13.016;2023-07-13T03:04:15;18.00;89.50
420;DHT22;42600;54.408;13.016;2023-07-13T03:06:44;18.00;89.30
420;DHT22;42600;54.408;13.016;2023-07-13T03:09:11;18.00;88.90
420;DHT22;42600;54.408;13.016;2023-07-13T03:11:38;18.00;88.50
420;DHT22;42600;54.408;13.016;2023-07-13T03:14:05;18.00;89.10
420;DHT22;42600;54.408;13.016;2023-07-13T03:16:31;17.90;89.20
420;DHT22;42600;54.408;13.016;2023-07-13T03:18:58;17.90;88.20
420;DHT22;42600;54.408;13.016;2023-07-13T03:21:26;17.90;87.70
420;DHT22;42600;54.408;13.016;2023-07-13T03:23:53;18.00;87.80
420;DHT22;42600;54.408;13.016;2023-07-13T03:26:20;18.00;89.00
420;DHT22;42600;54.408;13.016;2023-07-13T03:28:47;18.00;89.00
420;DHT22;42600;54.408;13.016;2023-07-13T03:31:16;17.90;88.70
420;DHT22;42600;54.408;13.016;2023-07-13T03:33:43;17.90;88.30
420;DHT22;42600;54.408;13.016;2023-07-13T03:36:14;18.00;88.10
420;DHT22;42600;54.408;13.016;2023-07-13T03:38:42;18.00;88.40
420;DHT22;42600;54.408;13.016;2023-07-13T03:41:09;17.90;88.80
420;DHT22;42600;54.408;13.016;2023-07-13T03:43:36;17.90;89.70
420;DHT22;42600;54.408;13.016;2023-07-13T03:46:02;17.90;89.50
420;DHT22;42600;54.408;13.016;2023-07-13T03:48:29;17.80;89.00
420;DHT22;42600;54.408;13.016;2023-07-13T03:50:55;17.80;88.20
420;DHT22;42600;54.408;13.016;2023-07-13T03:53:22;17.80;88.50
420;DHT22;42600;54.408;13.016;2023-07-13T03:55:50;17.70;89.90
420;DHT22;42600;54.408;13.016;2023-07-13T03:58:28;17.70;91.20
420;DHT22;42600;54.408;13.016;2023-07-13T04:00:55;17.70;90.00
420;DHT22;42600;54.408;13.016;2023-07-13T04:03:22;17.70;89.80
420;DHT22;42600;54.408;13.016;2023-07-13T04:05:49;17.80;90.20
420;DHT22;42600;54.408;13.016;2023-07-13T04:08:16;17.80;89.30
420;DHT22;42600;54.408;13.016;2023-07-13T04:10:43;18.00;89.80
420;DHT22;42600;54.408;13.016;2023-07-13T04:13:11;18.00;90.60
420;DHT22;42600;54.408;13.016;2023-07-13T04:15:39;18.10;90.20
420;DHT22;42600;54.408;13.016;2023-07-13T04:18:06;18.20;89.50
420;DHT22;42600;54.408;13.016;2023-07-13T04:20:32;18.30;90.10
420;DHT22;42600;54.408;13.016;2023-07-13T04:22:59;18.40;88.80
420;DHT22;42600;54.408;13.016;2023-07-13T04:25:26;18.40;89.50
420;DHT22;42600;54.408;13.016;2023-07-13T04:27:53;18.50;88.60
420;DHT22;42600;54.408;13.016;2023-07-13T04:30:22;18.60;88.00
420;DHT22;42600;54.408;13.016;2023-07-13T04:32:50;18.70;87.70
420;DHT22;42600;54.408;13.016;2023-07-13T04:35:18;18.80;87.30
420;DHT22;42600;54.408;13.016;2023-07-13T04:37:45;18.90;86.60
420;DHT22;42600;54.408;13.016;2023-07-13T04:40:12;18.90;87.30
420;DHT22;42600;54.408;13.016;2023-07-13T04:42:39;18.90;86.70
420;DHT22;42600;54.408;13.016;2023-07-13T04:45:06;19.00;87.20
420;DHT22;42600;54.408;13.016;2023-07-13T04:47:34;19.00;85.60
420;DHT22;42600;54.408;13.016;2023-07-13T04:50:01;19.10;86.20
420;DHT22;42600;54.408;13.016;2023-07-13T04:52:28;19.10;85.50
420;DHT22;42600;54.408;13.016;2023-07-13T04:54:54;19.30;85.20
420;DHT22;42600;54.408;13.016;2023-07-13T04:57:21;19.40;85.10
420;DHT22;42600;54.408;13.016;2023-07-13T04:59:48;19.40;84.70
420;DHT22;42600;54.408;13.016;2023-07-13T05:02:14;19.40;84.80
420;DHT22;42600;54.408;13.016;2023-07-13T05:04:42;19.50;84.60
420;DHT22;42600;54.408;13.016;2023-07-13T05:07:10;19.50;84.50
420;DHT22;42600;54.408;13.016;2023-07-13T05:09:36;19.60;84.10
420;DHT22;42600;54.408;13.016;2023-07-13T05:12:06;19.70;83.80
420;DHT22;42600;54.408;13.016;2023-07-13T05:14:33;19.80;84.30
420;DHT22;42600;54.408;13.016;2023-07-13T05:16:59;19.80;83.50
420;DHT22;42600;54.408;13.016;2023-07-13T05:19:26;20.00;83.20
420;DHT22;42600;54.408;13.016;2023-07-13T05:21:54;20.00;82.90
420;DHT22;42600;54.408;13.016;2023-07-13T05:24:20;20.00;82.80
420;DHT22;42600;54.408;13.016;2023-07-13T05:26:47;20.10;82.70
420;DHT22;42600;54.408;13.016;2023-07-13T05:29:14;20.20;82.80
420;DHT22;42600;54.408;13.016;2023-07-13T05:31:40;20.30;81.90
420;DHT22;42600;54.408;13.016;2023-07-13T05:34:07;20.30;82.10
420;DHT22;42600;54.408;13.016;2023-07-13T05:36:34;20.40;81.80
420;DHT22;42600;54.408;13.016;2023-07-13T05:39:02;20.40;82.10
420;DHT22;42600;54.408;13.016;2023-07-13T05:41:29;20.50;81.80
420;DHT22;42600;54.408;13.016;2023-07-13T05:43:56;20.60;81.90
420;DHT22;42600;54.408;13.016;2023-07-13T05:46:22;20.70;81.50
420;DHT22;42600;54.408;13.016;2023-07-13T05:48:49;20.80;80.80
420;DHT22;42600;54.408;13.016;2023-07-13T05:51:15;20.80;80.80
420;DHT22;42600;54.408;13.016;2023-07-13T05:53:42;20.80;80.90
420;DHT22;42600;54.408;13.016;2023-07-13T05:56:10;20.90;80.50
420;DHT22;42600;54.408;13.016;2023-07-13T05:58:37;21.00;80.90
420;DHT22;42600;54.408;13.016;2023-07-13T06:01:06;21.10;80.20
420;DHT22;42600;54.408;13.016;2023-07-13T06:03:33;21.30;80.00
420;DHT22;42600;54.408;13.016;2023-07-13T06:06:00;21.30;79.30
420;DHT22;42600;54.408;13.016;2023-07-13T06:08:27;21.20;79.90
420;DHT22;42600;54.408;13.016;2023-07-13T06:10:54;21.20;79.40
420;DHT22;42600;54.408;13.016;2023-07-13T06:13:22;21.30;79.30
420;DHT22;42600;54.408;13.016;2023-07-13T06:15:48;21.30;79.10
420;DHT22;42600;54.408;13.016;2023-07-13T06:18:15;21.40;78.80
420;DHT22;42600;54.408;13.016;2023-07-13T06:20:42;21.60;78.60
420;DHT22;42600;54.408;13.016;2023-07-13T06:23:08;21.60;79.00
420;DHT22;42600;54.408;13.016;2023-07-13T06:25:35;21.60;78.10
420;DHT22;42600;54.408;13.016;2023-07-13T06:28:02;21.70;77.60
420;DHT22;42600;54.408;13.016;2023-07-13T06:30:30;21.70;77.00
420;DHT22;42600;54.408;13.016;2023-07-13T06:32:57;21.70;75.70
420;DHT22;42600;54.408;13.016;2023-07-13T06:35:23;21.80;75.30
420;DHT22;42600;54.408;13.016;2023-07-13T06:37:50;21.80;76.40
420;DHT22;42600;54.408;13.016;2023-07-13T06:40:17;21.70;75.60
420;DHT22;42600;54.408;13.016;2023-07-13T06:42:43;21.80;74.80
420;DHT22;42600;54.408;13.016;2023-07-13T06:45:10;21.80;74.50
420;DHT22;42600;54.408;13.016;2023-07-13T06:47:38;21.70;74.00
420;DHT22;42600;54.408;13.016;2023-07-13T06:50:05;21.70;74.10
420;DHT22;42600;54.408;13.016;2023-07-13T06:52:32;21.80;73.40
420;DHT22;42600;54.408;13.016;2023-07-13T06:54:58;21.90;73.40
420;DHT22;42600;54.408;13.016;2023-07-13T06:57:25;22.00;73.10
420;DHT22;42600;54.408;13.016;2023-07-13T06:59:52;22.20;73.10
420;DHT22;42600;54.408;13.016;2023-07-13T07:02:19;22.20;72.90
420;DHT22;42600;54.408;13.016;2023-07-13T07:04:47;22.20;72.30
420;DHT22;42600;54.408;13.016;2023-07-13T07:07:13;22.30;72.50
420;DHT22;42600;54.408;13.016;2023-07-13T07:09:40;22.40;72.30
420;DHT22;42600;54.408;13.016;2023-07-13T07:12:07;22.40;72.20
420;DHT22;42600;54.408;13.016;2023-07-13T07:14:34;22.40;72.20
420;DHT22;42600;54.408;13.016;2023-07-13T07:17:00;22.50;72.10
420;DHT22;42600;54.408;13.016;2023-07-13T07:19:27;22.60;72.00
420;DHT22;42600;54.408;13.016;2023-07-13T07:21:55;22.50;72.00
420;DHT22;42600;54.408;13.016;2023-07-13T07:24:22;22.50;72.20
420;DHT22;42600;54.408;13.016;2023-07-13T07:26:49;22.50;72.20
420;DHT22;42600;54.408;13.016;2023-07-13T07:29:15;22.60;72.50
420;DHT22;42600;54.408;13.016;2023-07-13T07:31:42;22.60;72.40
420;DHT22;42600;54.408;13.016;2023-07-13T07:34:08;22.60;72.20
420;DHT22;42600;54.408;13.016;2023-07-13T07:36:35;22.70;72.20
420;DHT22;42600;54.408;13.016;2023-07-13T07:39:03;22.70;72.20
420;DHT22;42600;54.408;13.016;2023-07-13T07:41:30;22.80;72.00
420;DHT22;42600;54.408;13.016;2023-07-13T07:43:56;22.90;72.20
420;DHT22;42600;54.408;13.016;2023-07-13T07:46:23;23.00;71.80
420;DHT22;42600;54.408;13.016;2023-07-13T07:48:50;23.00;71.80
420;DHT22;42600;54.408;13.016;2023-07-13T07:51:16;23.20;71.70
420;DHT22;42600;54.408;13.016;2023-07-13T07:53:43;23.20;71.20
420;DHT22;42600;54.408;13.016;2023-07-13T07:56:11;23.10;71.10
420;DHT22;42600;54.408;13.016;2023-07-13T07:58:37;23.00;70.60
420;DHT22;42600;54.408;13.016;2023-07-13T08:01:04;23.10;70.80
420;DHT22;42600;54.408;13.016;2023-07-13T08:03:31;23.10;70.60
420;DHT22;42600;54.408;13.016;2023-07-13T08:05:58;23.10;70.80
420;DHT22;42600;54.408;13.016;2023-07-13T08:08:25;23.20;70.60
420;DHT22;42600;54.408;13.016;2023-07-13T08:10:52;23.20;70.10
420;DHT22;42600;54.408;13.016;2023-07-13T08:13:20;23.20;69.00
420;DHT22;42600;54.408;13.016;2023-07-13T08:15:46;23.20;68.80
420;DHT22;42600;54.408;13.016;2023-07-13T08:18:14;23.10;69.10
420;DHT22;42600;54.408;13.016;2023-07-13T08:20:41;23.10;69.40
420;DHT22;42600;54.408;13.016;2023-07-13T08:23:09;23.20;69.60
420;DHT22;42600;54.408;13.016;2023-07-13T08:25:36;23.20;69.30
420;DHT22;42600;54.408;13.016;2023-07-13T08:28:03;23.30;69.40
420;DHT22;42600;54.408;13.016;2023-07-13T08:30:31;23.50;69.40
420;DHT22;42600;54.408;13.016;2023-07-13T08:32:58;23.60;69.10
420;DHT22;42600;54.408;13.016;2023-07-13T08:35:24;23.60;68.80
420;DHT22;42600;54.408;13.016;2023-07-13T08:37:51;23.70;68.40
420;DHT22;42600;54.408;13.016;2023-07-13T08:40:21;23.70;67.60
420;DHT22;42600;54.408;13.016;2023-07-13T08:42:53;23.70;67.70
420;DHT22;42600;54.408;13.016;2023-07-13T08:45:22;23.80;67.80
420;DHT22;42600;54.408;13.016;2023-07-13T08:47:53;23.90;67.40
420;DHT22;42600;54.408;13.016;2023-07-13T08:50:24;23.90;68.40
420;DHT22;42600;54.408;13.016;2023-07-13T08:52:53;23.90;68.70
420;DHT22;42600;54.408;13.016;2023-07-13T08:55:24;23.90;68.30
420;DHT22;42600;54.408;13.016;2023-07-13T08:57:59;23.70;68.30
420;DHT22;42600;54.408;13.016;2023-07-13T09:00:36;23.60;68.30
420;DHT22;42600;54.408;13.016;2023-07-13T09:03:16;23.40;68.30
420;DHT22;42600;54.408;13.016;2023-07-13T09:05:49;23.30;68.30
420;DHT22;42600;54.408;13.016;2023-07-13T09:08:34;23.20;68.70
420;DHT22;42600;54.408;13.016;2023-07-13T09:11:14;23.10;68.90
420;DHT22;42600;54.408;13.016;2023-07-13T09:13:49;23.00;69.30
420;DHT22;42600;54.408;13.016;2023-07-13T09:16:19;23.00;69.10
420;DHT22;42600;54.408;13.016;2023-07-13T09:18:49;23.20;69.20
420;DHT22;42600;54.408;13.016;2023-07-13T09:21:18;23.30;69.20
420;DHT22;42600;54.408;13.016;2023-07-13T09:23:47;23.40;69.10
420;DHT22;42600;54.408;13.016;2023-07-13T09:26:18;23.50;68.90
420;DHT22;42600;54.408;13.016;2023-07-13T09:28:47;23.50;68.40
420;DHT22;42600;54.408;13.016;2023-07-13T09:31:18;23.50;68.60
420;DHT22;42600;54.408;13.016;2023-07-13T09:33:48;23.50;68.50
420;DHT22;42600;54.408;13.016;2023-07-13T09:36:21;23.50;68.80
420;DHT22;42600;54.408;13.016;2023-07-13T09:38:51;23.50;68.90
420;DHT22;42600;54.408;13.016;2023-07-13T09:41:28;23.60;69.00
420;DHT22;42600;54.408;13.016;2023-07-13T09:44:01;23.50;69.20
420;DHT22;42600;54.408;13.016;2023-07-13T09:46:28;23.50;69.40
420;DHT22;42600;54.408;13.016;2023-07-13T09:48:57;23.50;69.50
420;DHT22;42600;54.408;13.016;2023-07-13T09:51:23;23.50;69.60
420;DHT22;42600;54.408;13.016;2023-07-13T09:53:50;23.40;69.10
420;DHT22;42600;54.408;13.016;2023-07-13T09:56:20;23.30;69.10
420;DHT22;42600;54.408;13.016;2023-07-13T09:58:48;23.30;69.40
420;DHT22;42600;54.408;13.016;2023-07-13T10:01:15;23.30;69.50
420;DHT22;42600;54.408;13.016;2023-07-13T10:03:52;23.30;69.40
420;DHT22;42600;54.408;13.016;2023-07-13T10:06:22;23.50;69.40
420;DHT22;42600;54.408;13.016;2023-07-13T10:08:50;23.60;68.90
420;DHT22;42600;54.408;13.016;2023-07-13T10:11:19;23.70;69.10
420;DHT22;42600;54.408;13.016;2023-07-13T10:13:51;23.80;69.10
420;DHT22;42600;54.408;13.016;2023-07-13T10:16:21;23.90;68.70
420;DHT22;42600;54.408;13.016;2023-07-13T10:18:50;23.90;68.40
420;DHT22;42600;54.408;13.016;2023-07-13T10:21:21;24.00;68.50
420;DHT22;42600;54.408;13.016;2023-07-13T10:23:51;24.10;68.00
420;DHT22;42600;54.408;13.016;2023-07-13T10:26:24;24.20;68.30
420;DHT22;42600;54.408;13.016;2023-07-13T10:28:53;24.20;67.50
420;DHT22;42600;54.408;13.016;2023-07-13T10:31:21;24.20;67.10
420;DHT22;42600;54.408;13.016;2023-07-13T10:33:48;24.20;67.40
420;DHT22;42600;54.408;13.016;2023-07-13T10:36:22;24.20;67.20
420;DHT22;42600;54.408;13.016;2023-07-13T10:38:51;24.20;67.20
420;DHT22;42600;54.408;13.016;2023-07-13T10:41:21;24.20;67.30
420;DHT22;42600;54.408;13.016;2023-07-13T10:43:51;24.20;67.20
420;DHT22;42600;54.408;13.016;2023-07-13T10:46:21;24.20;67.70
420;DHT22;42600;54.408;13.016;2023-07-13T10:48:53;24.10;68.30
420;DHT22;42600;54.408;13.016;2023-07-13T10:51:22;24.00;68.70
420;DHT22;42600;54.408;13.016;2023-07-13T10:54:11;23.80;69.20
420;DHT22;42600;54.408;13.016;2023-07-13T10:56:39;23.80;69.40
420;DHT22;42600;54.408;13.016;2023-07-13T10:59:11;23.60;70.10
420;DHT22;42600;54.408;13.016;2023-07-13T11:01:46;23.50;70.80
420;DHT22;42600;54.408;13.016;2023-07-13T11:04:19;23.40;71.80
420;DHT22;42600;54.408;13.016;2023-07-13T11:06:52;23.50;72.10
420;DHT22;42600;54.408;13.016;2023-07-13T11:09:32;23.40;72.90
420;DHT22;42600;54.408;13.016;2023-07-13T11:12:00;23.30;73.20
420;DHT22;42600;54.408;13.016;2023-07-13T11:14:35;23.30;73.10
420;DHT22;42600;54.408;13.016;2023-07-13T11:17:32;23.30;73.00
420;DHT22;42600;54.408;13.016;2023-07-13T11:20:10;23.30;72.90
420;DHT22;42600;54.408;13.016;2023-07-13T11:22:49;23.30;72.50
420;DHT22;42600;54.408;13.016;2023-07-13T11:25:26;23.40;71.10
420;DHT22;42600;54.408;13.016;2023-07-13T11:28:07;23.50;69.50
420;DHT22;42600;54.408;13.016;2023-07-13T11:30:39;23.60;68.90
420;DHT22;42600;54.408;13.016;2023-07-13T11:33:14;23.70;67.70
420;DHT22;42600;54.408;13.016;2023-07-13T11:35:45;23.70;67.50
420;DHT22;42600;54.408;13.016;2023-07-13T11:38:16;23.80;67.30
420;DHT22;42600;54.408;13.016;2023-07-13T11:40:44;23.90;67.30
420;DHT22;42600;54.408;13.016;2023-07-13T11:43:14;23.90;67.70
420;DHT22;42600;54.408;13.016;2023-07-13T11:45:42;24.00;67.90
420;DHT22;42600;54.408;13.016;2023-07-13T11:48:23;24.00;68.20
420;DHT22;42600;54.408;13.016;2023-07-13T11:50:52;24.00;69.60
420;DHT22;42600;54.408;13.016;2023-07-13T11:53:21;23.90;71.30
420;DHT22;42600;54.408;13.016;2023-07-13T11:55:47;24.10;71.00
420;DHT22;42600;54.408;13.016;2023-07-13T11:58:19;24.10;71.30
420;DHT22;42600;54.408;13.016;2023-07-13T12:00:47;24.10;71.50
420;DHT22;42600;54.408;13.016;2023-07-13T12:03:18;24.10;71.20
420;DHT22;42600;54.408;13.016;2023-07-13T12:05:59;24.20;71.20
420;DHT22;42600;54.408;13.016;2023-07-13T12:08:28;24.10;69.60
420;DHT22;42600;54.408;13.016;2023-07-13T12:11:04;24.10;69.70
420;DHT22;42600;54.408;13.016;2023-07-13T12:13:36;24.10;70.30
420;DHT22;42600;54.408;13.016;2023-07-13T12:16:11;24.10;70.20
420;DHT22;42600;54.408;13.016;2023-07-13T12:18:38;24.00;69.80
420;DHT22;42600;54.408;13.016;2023-07-13T12:21:05;23.90;70.60
420;DHT22;42600;54.408;13.016;2023-07-13T12:23:34;23.80;70.60
420;DHT22;42600;54.408;13.016;2023-07-13T12:26:03;23.80;69.90
420;DHT22;42600;54.408;13.016;2023-07-13T12:28:33;23.60;69.50
420;DHT22;42600;54.408;13.016;2023-07-13T12:31:02;23.50;69.80
420;DHT22;42600;54.408;13.016;2023-07-13T12:33:30;23.40;70.40
420;DHT22;42600;54.408;13.016;2023-07-13T12:36:00;23.20;72.90
420;DHT22;42600;54.408;13.016;2023-07-13T12:38:27;23.10;72.40
420;DHT22;42600;54.408;13.016;2023-07-13T12:40:56;23.10;72.40
420;DHT22;42600;54.408;13.016;2023-07-13T12:43:23;23.00;72.60
420;DHT22;42600;54.408;13.016;2023-07-13T12:45:58;22.90;72.60
420;DHT22;42600;54.408;13.016;2023-07-13T12:48:25;22.80;73.20
420;DHT22;42600;54.408;13.016;2023-07-13T12:50:54;22.80;72.50
420;DHT22;42600;54.408;13.016;2023-07-13T12:53:23;22.80;73.70
420;DHT22;42600;54.408;13.016;2023-07-13T12:55:57;22.50;74.60
420;DHT22;42600;54.408;13.016;2023-07-13T12:58:28;22.50;74.90
420;DHT22;42600;54.408;13.016;2023-07-13T13:00:56;22.50;75.60
420;DHT22;42600;54.408;13.016;2023-07-13T13:03:28;22.50;75.10
420;DHT22;42600;54.408;13.016;2023-07-13T13:05:58;22.40;75.00
420;DHT22;42600;54.408;13.016;2023-07-13T13:08:25;22.20;74.70
420;DHT22;42600;54.408;13.016;2023-07-13T13:10:52;22.20;74.50
420;DHT22;42600;54.408;13.016;2023-07-13T13:13:20;22.00;74.50
420;DHT22;42600;54.408;13.016;2023-07-13T13:15:46;21.70;75.50
420;DHT22;42600;54.408;13.016;2023-07-13T13:18:16;21.70;76.10
420;DHT22;42600;54.408;13.016;2023-07-13T13:20:43;21.60;76.20
420;DHT22;42600;54.408;13.016;2023-07-13T13:23:12;21.50;76.20
420;DHT22;42600;54.408;13.016;2023-07-13T13:25:43;21.40;76.70
420;DHT22;42600;54.408;13.016;2023-07-13T13:28:14;21.40;77.00
420;DHT22;42600;54.408;13.016;2023-07-13T13:30:43;21.20;77.30
420;DHT22;42600;54.408;13.016;2023-07-13T13:33:11;21.10;77.90
420;DHT22;42600;54.408;13.016;2023-07-13T13:35:38;21.10;77.40
420;DHT22;42600;54.408;13.016;2023-07-13T13:38:10;21.10;78.90
420;DHT22;42600;54.408;13.016;2023-07-13T13:40:37;20.80;80.40
420;DHT22;42600;54.408;13.016;2023-07-13T13:43:13;20.70;81.80
420;DHT22;42600;54.408;13.016;2023-07-13T13:45:40;20.30;83.50
420;DHT22;42600;54.408;13.016;2023-07-13T13:48:14;20.30;84.10
420;DHT22;42600;54.408;13.016;2023-07-13T13:50:41;20.10;85.70
420;DHT22;42600;54.408;13.016;2023-07-13T13:53:10;20.10;84.90
420;DHT22;42600;54.408;13.016;2023-07-13T13:55:37;20.40;82.80
420;DHT22;42600;54.408;13.016;2023-07-13T13:58:04;20.70;83.20
420;DHT22;42600;54.408;13.016;2023-07-13T14:00:31;20.60;84.10
420;DHT22;42600;54.408;13.016;2023-07-13T14:02:58;20.50;84.80
420;DHT22;42600;54.408;13.016;2023-07-13T14:05:26;20.20;86.20
420;DHT22;42600;54.408;13.016;2023-07-13T14:07:53;20.60;84.10
420;DHT22;42600;54.408;13.016;2023-07-13T14:10:21;20.80;83.50
420;DHT22;42600;54.408;13.016;2023-07-13T14:12:51;21.10;82.80
420;DHT22;42600;54.408;13.016;2023-07-13T14:15:21;21.50;81.50
420;DHT22;42600;54.408;13.016;2023-07-13T14:17:48;21.30;81.00
420;DHT22;42600;54.408;13.016;2023-07-13T14:20:16;20.90;82.60
420;DHT22;42600;54.408;13.016;2023-07-13T14:22:44;20.70;83.80
420;DHT22;42600;54.408;13.016;2023-07-13T14:25:11;20.50;84.50
420;DHT22;42600;54.408;13.016;2023-07-13T14:27:38;20.50;84.90
420;DHT22;42600;54.408;13.016;2023-07-13T14:30:12;21.10;83.00
420;DHT22;42600;54.408;13.016;2023-07-13T14:32:40;21.10;82.80
420;DHT22;42600;54.408;13.016;2023-07-13T14:35:08;21.40;81.50
420;DHT22;42600;54.408;13.016;2023-07-13T14:37:36;21.00;82.30
420;DHT22;42600;54.408;13.016;2023-07-13T14:40:12;21.20;82.90
420;DHT22;42600;54.408;13.016;2023-07-13T14:42:39;21.30;82.00
420;DHT22;42600;54.408;13.016;2023-07-13T14:45:13;21.70;81.40
420;DHT22;42600;54.408;13.016;2023-07-13T14:47:39;21.90;80.50
420;DHT22;42600;54.408;13.016;2023-07-13T14:50:12;22.00;80.60
420;DHT22;42600;54.408;13.016;2023-07-13T14:52:39;22.30;80.00
420;DHT22;42600;54.408;13.016;2023-07-13T14:55:10;22.10;79.30
420;DHT22;42600;54.408;13.016;2023-07-13T14:57:37;22.30;79.70
420;DHT22;42600;54.408;13.016;2023-07-13T15:00:05;22.50;78.70
420;DHT22;42600;54.408;13.016;2023-07-13T15:02:34;22.50;78.50
420;DHT22;42600;54.408;13.016;2023-07-13T15:05:11;22.40;78.90
420;DHT22;42600;54.408;13.016;2023-07-13T15:07:38;22.60;78.00
420;DHT22;42600;54.408;13.016;2023-07-13T15:10:13;22.70;77.50
420;DHT22;42600;54.408;13.016;2023-07-13T15:12:40;22.70;76.80
420;DHT22;42600;54.408;13.016;2023-07-13T15:15:07;22.70;75.60
420;DHT22;42600;54.408;13.016;2023-07-13T15:17:36;22.70;75.10
420;DHT22;42600;54.408;13.016;2023-07-13T15:20:14;22.60;72.80
420;DHT22;42600;54.408;13.016;2023-07-13T15:22:43;22.60;70.50
420;DHT22;42600;54.408;13.016;2023-07-13T15:25:16;22.60;69.20
420;DHT22;42600;54.408;13.016;2023-07-13T15:27:43;22.50;69.10
420;DHT22;42600;54.408;13.016;2023-07-13T15:30:10;22.50;68.50
420;DHT22;42600;54.408;13.016;2023-07-13T15:32:37;22.50;69.00
420;DHT22;42600;54.408;13.016;2023-07-13T15:35:05;22.50;68.60
420;DHT22;42600;54.408;13.016;2023-07-13T15:37:31;22.50;68.60
420;DHT22;42600;54.408;13.016;2023-07-13T15:39:58;22.50;69.40
420;DHT22;42600;54.408;13.016;2023-07-13T15:42:26;22.50;69.00
420;DHT22;42600;54.408;13.016;2023-07-13T15:44:53;22.50;68.80
420;DHT22;42600;54.408;13.016;2023-07-13T15:47:19;22.50;68.80
420;DHT22;42600;54.408;13.016;2023-07-13T15:49:46;22.40;69.10
420;DHT22;42600;54.408;13.016;2023-07-13T15:52:21;22.50;69.30
420;DHT22;42600;54.408;13.016;2023-07-13T15:54:48;22.50;69.10